Latest Coastal Weather Observations for Green Cape

IDN60701

Issued at 10:41 am EST Monday 31 August 2015 (issued every 10 minutes, with the page automatically refreshed every 10 minutes)

About coastal observations | Map of coastal stations | Coastal observations for NSW | Marine services | Other Formats
Station Details ID: 069137 Name: GREEN CAPE AWS Lat: -37.26 Lon: 150.05 Height: 19.4 m
Data from the previous 72 hours. | See also: Recent months at Green Cape
Date/Time
EST
Temp

°C
Wind Pressure Rain
since 9am
mm
Weather Cloud Vis
km
Sea
Height
m
Swell
Dir
 
Speed
knots
Gust
knots
hPa Trend Height
m
Period
s
Dir
31/10:30am 11.9 WSW 25 30 1016.5 - 0.0 - - - - - - -
31/10:00am 11.5 WSW 22 26 1016.6 - 0.0 - - - - - - -
31/09:30am 11.0 WSW 22 30 1016.9 - 0.0 - - - - - - -
31/09:00am 10.6 WSW 23 29 1016.8 - 0.2 - - - - - - -
31/08:30am 10.4 WSW 24 31 1016.9 - 0.2 - - - - - - -
31/08:00am 10.2 WSW 24 29 1016.9 - 0.2 - - - - - - -
31/07:30am 9.9 WSW 24 28 1016.9 - 0.2 - - - - - - -
31/07:00am 9.8 WSW 24 28 1016.7 - 0.2 - - - - - - -
31/06:30am 9.8 WSW 23 27 1016.5 - 0.2 - - - - - - -
31/06:00am 10.0 WSW 24 30 1016.4 - 0.2 - - - - - - -
31/05:30am 9.6 WSW 21 27 1016.4 - 0.2 - - - - - - -
31/05:00am 9.9 WSW 21 25 1016.5 - 0.2 - - - - - - -
31/04:30am 9.8 WSW 22 28 1016.6 - 0.2 - - - - - - -
31/04:00am 9.8 WSW 20 24 1016.8 - 0.2 - - - - - - -
31/03:30am 9.9 WSW 22 28 1016.6 - 0.2 - - - - - - -
31/03:00am 9.8 WSW 25 31 1016.6 - 0.2 - - - - - - -
31/02:30am 9.8 WSW 26 31 1017.0 - 0.2 - - - - - - -
31/02:00am 9.9 WSW 25 31 1017.6 - 0.2 - - - - - - -
31/01:30am 9.9 WSW 25 31 1017.9 - 0.2 - - - - - - -
31/01:00am 10.2 WSW 24 27 1018.2 - 0.2 - - - - - - -
31/12:30am 10.0 WSW 24 28 1018.5 - 0.2 - - - - - - -
31/12:00am 10.2 WSW 25 33 1018.5 - 0.2 - - - - - - -
 
Date/Time
EST
Temp

°C
Wind Pressure Rain
since 9am
mm
Weather Cloud Vis
km
Sea
Height
m
Swell
Dir
 
Speed
knots
Gust
knots
hPa Trend Height
m
Period
s
Dir
30/11:30pm 10.4 WSW 24 29 1018.8 - 0.2 - - - - - - -
30/11:00pm 10.4 WSW 22 27 1019.1 - 0.2 - - - - - - -
30/10:30pm 10.3 WSW 23 27 1019.5 - 0.2 - - - - - - -
30/10:00pm 10.1 WSW 24 28 1019.7 - 0.2 - - - - - - -
30/09:30pm 10.0 WSW 24 28 1019.8 - 0.2 - - - - - - -
30/09:00pm 10.2 WSW 22 26 1019.9 - 0.2 - - - - - - -
30/08:30pm 9.9 WSW 21 25 1019.9 - 0.2 - - - - - - -
30/08:00pm 10.3 WSW 23 29 1019.9 - 0.2 - - - - - - -
30/07:30pm 10.4 WSW 23 27 1019.7 - 0.2 - - - - - - -
30/07:00pm 10.4 WSW 23 29 1019.6 - 0.2 - - - - - - -
30/06:30pm 10.3 WSW 22 25 1019.4 - 0.2 - - - - - - -
30/06:00pm 10.4 WSW 23 29 1019.2 - 0.2 - - - - - - -
30/05:30pm 10.4 SW 22 28 1019.1 - 0.2 - - - - - - -
30/05:00pm 11.2 SW 21 26 1019.0 - 0.2 - - - - - - -
30/04:30pm 11.1 SW 21 27 1018.9 - 0.2 - - - - - - -
30/04:00pm 11.4 SW 21 27 1018.8 - 0.2 - - - - - - -
30/03:30pm 11.3 WSW 22 27 1018.9 - 0.2 - - - - - - -
30/03:00pm 11.4 WSW 22 26 1018.9 - 0.2 - - - - - - -
30/02:30pm 12.2 WSW 21 26 1018.8 - 0.2 - - - - - - -
30/02:00pm 12.3 SW 21 25 1018.5 - 0.2 - - - - - - -
30/01:30pm 12.3 SW 23 31 1018.4 - 0.2 - - - - - - -
30/01:00pm 11.8 SW 27 33 1018.5 - 0.2 - - - - - - -
30/12:30pm 11.6 SW 26 32 1018.9 - 0.2 - - - - - - -
30/12:00pm 11.4 SW 24 28 1019.0 - 0.2 - - - - - - -
30/11:42am 11.2 WSW 19 32 1019.4 - 0.2 - - - - - - -
30/11:30am 11.1 WSW 20 23 1019.7 - 0.2 - - - - - - -
30/11:00am 11.2 WSW 19 24 1019.7 - 0.2 - - - - - - -
30/10:30am 10.9 WSW 20 25 1020.1 - 0.0 - - - - - - -
30/10:00am 11.0 WSW 19 24 1020.0 - 0.0 - - - - - - -
30/09:30am 11.1 WSW 20 25 1019.9 - 0.0 - - - - - - -
30/09:00am 11.0 WSW 20 25 1019.9 - 0.2 - - - - - - -
30/08:30am 11.4 WSW 21 25 1019.7 - 0.2 - - - - - - -
30/08:00am 10.9 WSW 21 25 1019.5 - 0.2 - - - - - - -
30/07:30am 10.4 SW 23 27 1019.2 - 0.2 - - - - - - -
30/07:00am 10.5 SW 24 27 1019.0 - 0.2 - - - - - - -
30/06:30am 10.7 SW 22 27 1018.7 - 0.2 - - - - - - -
30/06:00am 10.6 SW 23 28 1018.6 - 0.2 - - - - - - -
30/05:30am 10.7 WSW 22 25 1018.6 - 0.2 - - - - - - -
30/05:00am 10.4 WSW 23 28 1018.4 - 0.2 - - - - - - -
30/04:30am 10.7 WSW 22 27 1018.5 - 0.2 - - - - - - -
30/04:00am 10.5 WSW 21 26 1018.3 - 0.2 - - - - - - -
30/03:30am 10.6 WSW 22 27 1018.4 - 0.2 - - - - - - -
30/03:00am 10.7 WSW 22 28 1018.5 - 0.2 - - - - - - -
30/02:30am 10.6 WSW 22 27 1018.6 - 0.2 - - - - - - -
30/02:00am 10.6 WSW 21 25 1019.0 - 0.2 - - - - - - -
30/01:30am 10.6 WSW 22 29 1019.2 - 0.2 - - - - - - -
30/01:00am 10.3 WSW 20 24 1019.4 - 0.2 - - - - - - -
30/12:30am 10.3 WSW 21 27 1019.6 - 0.2 - - - - - - -
30/12:00am 10.4 WSW 25 29 1019.5 - 0.2 - - - - - - -
 
Date/Time
EST
Temp

°C
Wind Pressure Rain
since 9am
mm
Weather Cloud Vis
km
Sea
Height
m
Swell
Dir
 
Speed
knots
Gust
knots
hPa Trend Height
m
Period
s
Dir
29/11:30pm 10.5 WSW 25 30 1019.3 - 0.2 - - - - - - -
29/11:00pm 10.5 WSW 23 28 1019.4 - 0.2 - - - - - - -
29/10:30pm 10.5 WSW 25 31 1019.3 - 0.2 - - - - - - -
29/10:00pm 10.5 WSW 25 30 1019.3 - 0.2 - - - - - - -
29/09:30pm 10.6 WSW 26 32 1019.1 - 0.2 - - - - - - -
29/09:00pm 10.5 WSW 26 31 1019.0 - 0.2 Recent precip. - - - - - -
29/08:30pm 10.3 SW 24 30 1019.1 - 0.2 - - - - - - -
29/08:00pm 10.7 WSW 28 35 1018.8 - 0.0 - - - - - - -
29/07:30pm 11.0 WSW 26 34 1018.7 - 0.0 - - - - - - -
29/07:00pm 10.7 WSW 27 32 1018.6 - 0.0 - - - - - - -
29/06:30pm 10.7 WSW 29 36 1018.4 - 0.0 - - - - - - -
29/06:16pm 10.9 WSW 28 38 1018.4 - 0.0 - - - - - - -
29/06:00pm 10.9 WSW 27 34 1018.1 - 0.0 - - - - - - -
29/05:30pm 10.8 WSW 28 35 1018.0 - 0.0 - - - - - - -
29/05:00pm 11.2 WSW 26 34 1018.0 - 0.0 - - - - - - -
29/04:30pm 11.9 WSW 28 39 1017.7 - 0.0 - - - - - - -
29/04:26pm 11.8 WSW 29 39 1017.6 - 0.0 - - - - - - -
29/04:00pm 12.0 WSW 28 37 1017.6 - 0.0 - - - - - - -
29/03:31pm 12.4 WSW 25 36 1017.6 - 0.0 - - - - - - -
29/03:30pm 12.3 WSW 25 33 1017.6 - 0.0 - - - - - - -
29/03:03pm 12.2 WSW 29 43 1017.3 - 0.0 - - - - - - -
29/03:00pm 12.2 WSW 28 37 1017.4 - 0.0 - - - - - - -
29/02:48pm 12.3 WSW 22 33 1017.4 - 0.0 - - - - - - -
29/02:30pm 12.7 WSW 24 30 1017.6 - 0.0 - - - - - - -
29/02:00pm 12.2 W 27 34 1017.4 - 0.0 - - - - - - -
29/01:30pm 11.6 WSW 29 39 1017.7 - 0.0 - - - - - - -
29/01:00pm 12.5 W 28 39 1018.1 - 0.0 - - - - - - -
29/12:30pm 12.1 W 27 38 1018.2 - 0.0 - - - - - - -
29/12:29pm 12.1 W 26 38 1018.3 - 0.0 - - - - - - -
29/12:00pm 12.0 WSW 26 34 1018.9 - 0.0 - - - - - - -
29/11:51am 12.3 W 19 31 1019.1 - 0.0 - - - - - - -
29/11:30am 12.0 W 21 28 1019.4 - 0.0 - - - - - - -
29/11:00am 11.7 W 19 25 1019.7 - 0.0 - - - - - - -
29/10:30am 11.1 W 21 29 1019.8 - 0.0 - - - - - - -
29/10:00am 10.6 W 19 23 1020.2 - 0.0 - - - - - - -
29/09:30am 9.8 W 17 21 1020.8 - 0.0 - - - - - - -
29/09:00am 9.4 WNW 15 19 1021.1 - 3.2 - - - - - - -
29/08:30am 8.9 W 19 23 1021.4 - 3.2 - - - - - - -
29/08:00am 8.2 W 18 22 1021.3 - 3.2 - - - - - - -
29/07:30am 7.9 W 11 15 1021.4 - 3.2 - - - - - - -
29/07:00am 7.8 W 12 15 1021.5 - 3.2 - - - - - - -
29/06:30am 7.7 W 12 16 1021.2 - 3.2 - - - - - - -
29/06:00am 8.3 W 15 18 1021.2 - 3.2 - - - - - - -
29/05:30am 8.5 W 13 17 1021.1 - 3.2 - - - - - - -
29/05:00am 8.2 W 10 16 1021.3 - 3.2 - - - - - - -
29/04:30am 8.4 W 17 22 1021.1 - 3.2 - - - - - - -
29/04:00am 8.3 W 17 20 1021.0 - 3.2 - - - - - - -
29/03:30am 8.8 WSW 15 17 1021.3 - 3.2 - - - - - - -
29/03:00am 8.8 WSW 20 25 1021.5 - 3.2 - - - - - - -
29/02:52am 8.9 WSW 17 25 1021.4 - 3.2 - - - - - - -
29/02:30am 9.0 WSW 12 15 1021.5 - 3.2 - - - - - - -
29/02:00am 9.2 WSW 12 15 1021.8 - 3.2 - - - - - - -
29/01:30am 9.2 W 14 17 1022.1 - 3.2 - - - - - - -
29/01:00am 9.5 WSW 13 16 1022.0 - 3.2 - - - - - - -
29/12:30am 9.5 WSW 15 17 1022.1 - 3.2 - - - - - - -
29/12:00am 9.5 WSW 16 19 1022.3 - 3.2 - - - - - - -
 
Date/Time
EST
Temp

°C
Wind Pressure Rain
since 9am
mm
Weather Cloud Vis
km
Sea
Height
m
Swell
Dir
 
Speed
knots
Gust
knots
hPa Trend Height
m
Period
s
Dir
28/11:30pm 9.6 WSW 16 20 1022.1 - 3.2 - - - - - - -
28/11:00pm 9.7 W 14 16 1022.3 - 3.2 - - - - - - -
28/10:30pm 9.9 WSW 11 14 1022.6 - 3.2 - - - - - - -
28/10:00pm 10.0 WSW 11 13 1022.8 - 3.2 - - - - - - -
28/09:30pm 10.4 WSW 13 17 1023.0 - 3.2 - - - - - - -
28/09:00pm 10.4 WSW 14 16 1022.8 - 3.2 - - - - - - -
28/08:30pm 10.3 WSW 14 18 1022.7 - 3.2 - - - - - - -
28/08:00pm 10.3 WSW 12 15 1022.5 - 3.2 - - - - - - -
28/07:30pm 10.4 WSW 13 16 1022.4 - 3.2 - - - - - - -
28/07:00pm 10.8 SW 16 23 1022.2 - 3.2 - - - - - - -
28/06:30pm 11.1 WSW 15 17 1021.8 - 3.2 - - - - - - -
28/06:00pm 10.9 SW 17 21 1021.6 - 3.2 - - - - - - -
28/05:30pm 10.9 SW 15 18 1021.1 - 3.2 - - - - - - -
28/05:00pm 11.1 SW 19 22 1020.6 - 3.2 - - - - - - -
28/04:30pm 11.2 SW 20 25 1020.1 - 3.2 - - - - - - -
28/04:00pm 11.7 SW 18 21 1019.9 - 3.2 - - - - - - -
28/03:30pm 11.9 SW 17 21 1019.8 - 3.2 - - - - - - -
28/03:00pm 11.9 SW 17 21 1019.4 - 3.2 Recent precip. - - - - - -
28/02:30pm 11.7 SW 22 27 1019.3 - 3.2 - - - - - - -
28/02:00pm 11.9 SW 21 26 1019.2 - 3.0 - - - - - - -
28/01:30pm 12.1 SW 18 21 1019.1 - 2.4 - - - - - - -
28/01:00pm 11.8 WSW 18 21 1019.2 - 2.2 - - - - - - -
28/12:44pm 12.0 SW 18 23 1019.3 - 1.4 - - - - - - -
28/12:37pm 11.9 SW 22 32 1019.2 - 1.2 - - - - - - -
28/12:30pm 12.5 SSW 27 32 1019.0 - 0.8 - - - - - - -
28/12:00pm 12.6 SSW 25 31 1019.0 - 0.6 Rain - - - - - -
28/11:30am 12.8 SSW 24 31 1019.0 - 0.4 - - - - - - -
28/11:00am 12.8 SSW 22 27 1018.9 - 0.4 - - - - - - -

Other Formats:

Comma delimited format used in spreadsheet applications
http://www.bom.gov.au/fwo/IDN60701/IDN60701.94934.axf

JavaScript Object Notation format (JSON) in row-major order
http://www.bom.gov.au/fwo/IDN60701/IDN60701.94934.json